createdAt,value
2022-08-07T00:07:21.199Z,100
2022-08-07T00:17:23.190Z,100
2022-08-07T00:27:25.461Z,100
2022-08-07T00:37:29.330Z,100
2022-08-07T00:48:08.581Z,100
2022-08-07T00:57:34.090Z,100
2022-08-07T01:07:33.570Z,100
2022-08-07T01:17:35.524Z,100
2022-08-07T01:48:18.821Z,100
2022-08-07T02:07:50.272Z,100
2022-08-07T02:17:49.178Z,100
2022-08-07T02:27:51.358Z,100
2022-08-07T02:37:53.135Z,100
2022-08-07T02:57:57.265Z,100
2022-08-07T03:08:05.486Z,100
2022-08-07T03:18:01.657Z,100
2022-08-07T03:28:09.356Z,100
2022-08-07T03:38:05.293Z,100
2022-08-07T03:48:09.951Z,100
2022-08-07T03:58:32.816Z,100
2022-08-07T04:08:12.094Z,100
2022-08-07T04:18:31.753Z,100
2022-08-07T04:38:18.541Z,100
2022-08-07T04:58:29.447Z,100
2022-08-07T05:08:45.494Z,100
2022-08-07T05:18:27.655Z,100
2022-08-07T05:28:30.298Z,100
2022-08-07T05:38:58.588Z,100
2022-08-07T05:48:34.589Z,100
2022-08-07T05:58:37.363Z,100
2022-08-07T06:08:42.101Z,100
2022-08-07T06:18:40.369Z,100
2022-08-07T06:38:51.528Z,100
2022-08-07T07:00:15.194Z,100
2022-08-07T07:08:50.991Z,100
2022-08-07T07:18:52.755Z,100
2022-08-07T07:29:28.421Z,100
2022-08-07T07:38:57.246Z,100
2022-08-07T07:48:59.860Z,100
2022-08-07T07:59:01.487Z,100
2022-08-07T08:09:03.110Z,100
2022-08-07T08:19:10.043Z,100
2022-08-07T08:29:08.243Z,100
2022-08-07T08:39:10.557Z,100
2022-08-07T08:49:12.728Z,100
2022-08-07T08:59:16.336Z,100
2022-08-07T09:09:20.888Z,100
2022-08-07T09:19:44.656Z,100
2022-08-07T09:30:02.656Z,100
2022-08-07T09:39:53.242Z,100
2022-08-07T09:50:00.117Z,100
2022-08-07T09:59:30.128Z,100
2022-08-07T10:09:34.441Z,100
2022-08-07T10:19:31.800Z,100
2022-08-07T10:29:35.003Z,100
2022-08-07T10:49:45.435Z,100
2022-08-07T10:49:59.665Z,100
2022-08-07T11:19:51.116Z,100
2022-08-07T11:29:53.938Z,100
2022-08-07T11:39:59.711Z,99
2022-08-07T11:50:25.656Z,95
2022-08-07T12:00:09.025Z,96
2022-08-07T12:10:02.060Z,89
2022-08-07T12:20:08.788Z,98
2022-08-07T12:30:06.241Z,93
2022-08-07T12:40:19.288Z,91
2022-08-07T12:50:34.568Z,90
2022-08-07T13:00:16.336Z,86
2022-08-07T13:10:20.235Z,90
2022-08-07T13:20:16.544Z,93
2022-08-07T13:30:39.714Z,94
2022-08-07T13:40:34.549Z,94
2022-08-07T13:50:32.203Z,95
2022-08-07T14:00:26.535Z,100
2022-08-07T14:10:28.114Z,92
2022-08-07T14:20:41.596Z,91
2022-08-07T14:30:32.926Z,95
2022-08-07T14:40:35.213Z,93
2022-08-07T14:50:37.657Z,98
2022-08-07T15:00:36.723Z,94
2022-08-07T15:10:38.594Z,94
2022-08-07T15:20:54.780Z,91
2022-08-07T15:40:48.976Z,88
2022-08-07T15:51:02.142Z,89
2022-08-07T16:00:48.361Z,85
2022-08-07T16:10:50.364Z,87
2022-08-07T16:20:55.366Z,100
2022-08-07T16:30:54.410Z,100
2022-08-07T16:41:01.428Z,100
2022-08-07T16:51:13.828Z,100
2022-08-07T17:01:00.943Z,100
2022-08-07T17:11:02.955Z,100
2022-08-07T17:21:18.356Z,100
2022-08-07T17:31:15.878Z,100
2022-08-07T17:41:12.622Z,100
2022-08-07T17:51:11.607Z,100
2022-08-07T18:01:17.919Z,100
2022-08-07T18:21:29.709Z,100
2022-08-07T18:31:19.539Z,100
2022-08-07T18:41:21.903Z,100
2022-08-07T18:52:09.708Z,100
2022-08-07T19:02:17.853Z,100
2022-08-07T19:11:35.358Z,100
2022-08-07T19:21:42.034Z,100
2022-08-07T19:31:41.612Z,100
2022-08-07T19:41:39.496Z,100
2022-08-07T19:51:51.476Z,100
2022-08-07T20:01:43.824Z,100
2022-08-07T20:12:01.693Z,100
2022-08-07T20:21:47.015Z,100
2022-08-07T20:31:46.631Z,100
2022-08-07T20:41:48.235Z,100
2022-08-07T20:51:51.040Z,100
2022-08-07T21:21:57.721Z,100
2022-08-07T21:32:44.300Z,100
2022-08-07T21:42:02.583Z,100
2022-08-07T21:52:02.485Z,100
2022-08-07T22:02:07.927Z,100
2022-08-07T22:12:07.516Z,100
2022-08-07T22:22:18.050Z,100
2022-08-07T22:32:11.631Z,100
2022-08-07T22:42:19.159Z,100
2022-08-07T22:52:19.490Z,100
2022-08-07T23:02:18.205Z,100
2022-08-07T23:12:21.115Z,100
2022-08-07T23:22:21.497Z,100
2022-08-07T23:32:49.800Z,100
2022-08-07T23:42:26.433Z,100
2022-08-07T23:52:59.079Z,100
